createdAt,value
2018-05-24T00:01:59.253Z,6.07
2018-05-24T00:04:26.716Z,6.13
2018-05-24T00:06:54.181Z,5.27
2018-05-24T00:09:21.636Z,5.10
2018-05-24T00:11:49.181Z,5.33
2018-05-24T00:14:16.640Z,5.10
2018-05-24T00:16:44.096Z,6.23
2018-05-24T00:19:11.567Z,5.10
2018-05-24T00:21:39.016Z,5.47
2018-05-24T00:24:06.476Z,5.27
2018-05-24T00:26:33.932Z,5.33
2018-05-24T00:29:01.518Z,5.40
2018-05-24T00:31:28.944Z,5.70
2018-05-24T00:33:56.493Z,5.40
2018-05-24T00:36:24.047Z,4.90
2018-05-24T00:38:51.509Z,5.93
2018-05-24T00:41:19.987Z,4.97
2018-05-24T00:43:48.248Z,5.00
2018-05-24T00:46:15.722Z,4.80
2018-05-24T00:48:43.184Z,5.87
2018-05-24T00:51:10.643Z,5.20
2018-05-24T00:53:38.192Z,5.13
2018-05-24T00:56:05.750Z,5.47
2018-05-24T00:58:33.313Z,6.20
2018-05-24T01:01:00.772Z,5.60
2018-05-24T01:03:28.324Z,6.10
2018-05-24T01:05:55.787Z,5.23
2018-05-24T01:08:23.247Z,5.50
2018-05-24T01:10:50.800Z,5.10
2018-05-24T01:13:18.350Z,5.30
2018-05-24T01:15:45.963Z,5.73
2018-05-24T01:18:13.396Z,4.83
2018-05-24T01:20:41.620Z,5.10
2018-05-24T01:23:09.075Z,5.20
2018-05-24T01:25:36.536Z,5.37
2018-05-24T01:28:04.079Z,4.70
2018-05-24T01:30:31.548Z,4.93
2018-05-24T01:32:59.012Z,4.73
2018-05-24T01:35:26.477Z,4.90
2018-05-24T01:37:53.933Z,4.60
2018-05-24T01:40:21.396Z,4.80
2018-05-24T01:42:48.848Z,5.20
2018-05-24T01:45:16.310Z,5.37
2018-05-24T01:47:43.768Z,4.87
2018-05-24T01:50:11.336Z,5.13
2018-05-24T01:52:38.801Z,5.03
2018-05-24T01:55:06.253Z,4.83
2018-05-24T01:57:33.719Z,4.77
2018-05-24T02:00:01.173Z,4.87
2018-05-24T02:02:28.696Z,4.90
2018-05-24T02:04:56.175Z,4.90
2018-05-24T02:07:23.628Z,5.33
2018-05-24T02:09:51.092Z,4.93
2018-05-24T02:12:18.677Z,4.90
2018-05-24T02:14:46.928Z,4.87
2018-05-24T02:17:14.384Z,5.73
2018-05-24T02:19:41.940Z,5.53
2018-05-24T02:22:09.396Z,5.80
2018-05-24T02:24:36.853Z,5.40
2018-05-24T02:27:04.310Z,4.43
2018-05-24T02:29:31.863Z,5.77
2018-05-24T02:31:59.328Z,5.10
2018-05-24T02:34:26.888Z,5.03
2018-05-24T02:36:54.345Z,5.20
2018-05-24T02:39:21.808Z,4.80
2018-05-24T02:41:49.264Z,4.63
2018-05-24T02:44:16.708Z,4.27
2018-05-24T02:46:44.174Z,5.03
2018-05-24T02:49:11.629Z,5.37
2018-05-24T02:51:39.097Z,5.00
2018-05-24T02:54:07.361Z,5.03
2018-05-24T02:56:34.812Z,5.37
2018-05-24T02:59:02.279Z,4.67
2018-05-24T03:01:29.728Z,4.50
2018-05-24T03:03:57.250Z,4.53
2018-05-24T03:06:25.420Z,5.17
2018-05-24T03:08:52.917Z,5.43
2018-05-24T03:11:20.476Z,4.80
2018-05-24T03:13:47.932Z,5.40
2018-05-24T03:16:15.392Z,4.73
2018-05-24T03:18:42.945Z,4.53
2018-05-24T03:21:11.165Z,5.37
2018-05-24T03:23:38.615Z,4.70
2018-05-24T03:26:06.076Z,4.57
2018-05-24T03:28:33.651Z,4.20
2018-05-24T03:31:01.047Z,4.67
2018-05-24T03:33:28.512Z,5.07
2018-05-24T03:35:55.964Z,5.27
2018-05-24T03:38:23.529Z,4.30
2018-05-24T03:40:50.992Z,4.50
2018-05-24T03:43:18.464Z,5.50
2018-05-24T03:45:46.703Z,4.60
2018-05-24T03:48:14.268Z,4.80
2018-05-24T03:50:41.727Z,4.70
2018-05-24T03:53:09.241Z,4.40
2018-05-24T03:55:37.573Z,4.53
2018-05-24T03:58:05.117Z,5.10
2018-05-24T04:00:44.452Z,4.23
2018-05-24T04:03:23.932Z,4.80
2018-05-24T04:05:51.405Z,4.27
2018-05-24T04:08:18.858Z,4.43
2018-05-24T04:10:46.366Z,4.43
2018-05-24T04:13:13.819Z,4.20
2018-05-24T04:15:41.296Z,3.80
2018-05-24T04:18:09.545Z,4.20
2018-05-24T04:20:37.007Z,4.23
2018-05-24T04:23:04.480Z,4.27
2018-05-24T04:25:32.027Z,4.30
2018-05-24T04:28:00.196Z,3.60
2018-05-24T04:30:27.647Z,3.87
2018-05-24T04:32:55.112Z,4.17
2018-05-24T04:35:22.568Z,4.40
2018-05-24T04:37:50.012Z,3.80
2018-05-24T04:40:17.577Z,5.60
2018-05-24T04:42:45.037Z,4.23
2018-05-24T04:45:12.497Z,4.13
2018-05-24T04:47:39.948Z,4.10
2018-05-24T04:50:07.413Z,3.50
2018-05-24T04:52:34.871Z,3.73
2018-05-24T04:55:02.334Z,4.40
2018-05-24T04:57:29.787Z,4.73
2018-05-24T04:59:57.244Z,4.20
2018-05-24T05:02:24.795Z,3.87
2018-05-24T05:04:52.252Z,4.00
2018-05-24T05:07:20.398Z,3.97
2018-05-24T05:09:48.146Z,5.20
2018-05-24T05:12:15.653Z,3.47
2018-05-24T05:14:43.223Z,4.33
2018-05-24T05:17:10.723Z,3.87
2018-05-24T05:19:38.258Z,6.70
2018-05-24T05:22:06.691Z,4.10
2018-05-24T05:24:34.172Z,4.40
2018-05-24T05:27:01.632Z,4.23
2018-05-24T05:29:29.867Z,4.60
2018-05-24T05:31:57.344Z,3.90
2018-05-24T05:34:24.814Z,4.90
2018-05-24T05:36:52.288Z,4.43
2018-05-24T05:39:21.268Z,4.60
2018-05-24T05:41:49.502Z,4.30
2018-05-24T05:44:16.965Z,4.00
2018-05-24T05:46:44.471Z,4.43
2018-05-24T05:49:11.891Z,3.83
2018-05-24T05:51:40.124Z,3.77
2018-05-24T05:54:07.589Z,4.00
2018-05-24T05:56:35.084Z,3.73
2018-05-24T05:59:02.546Z,3.83
2018-05-24T06:01:30.022Z,3.50
2018-05-24T06:03:58.269Z,4.33
2018-05-24T06:06:25.721Z,3.37
2018-05-24T06:08:53.188Z,3.77
2018-05-24T06:11:20.767Z,4.57
2018-05-24T06:13:49.098Z,3.90
2018-05-24T06:16:16.481Z,3.27
2018-05-24T06:18:45.466Z,3.67
2018-05-24T06:21:13.033Z,3.80
2018-05-24T06:23:40.489Z,3.90
2018-05-24T06:26:07.939Z,4.00
2018-05-24T06:28:35.503Z,4.00
2018-05-24T06:31:03.685Z,3.17
2018-05-24T06:33:31.148Z,3.50
2018-05-24T06:35:58.692Z,3.40
2018-05-24T06:38:26.248Z,3.47
2018-05-24T06:40:53.813Z,3.80
2018-05-24T06:43:21.271Z,3.47
2018-05-24T06:45:49.506Z,3.93
2018-05-24T06:48:16.960Z,3.77
2018-05-24T06:50:44.439Z,3.40
2018-05-24T06:53:11.927Z,4.10
2018-05-24T06:55:39.984Z,3.83
2018-05-24T06:58:07.450Z,4.17
2018-05-24T07:00:34.896Z,3.87
2018-05-24T07:03:03.145Z,3.30
2018-05-24T07:05:30.628Z,3.10
2018-05-24T07:07:58.856Z,3.40
2018-05-24T07:10:26.329Z,3.50
2018-05-24T07:12:53.776Z,3.70
2018-05-24T07:15:21.236Z,3.70
2018-05-24T07:17:48.701Z,3.97
2018-05-24T07:20:17.066Z,4.53
2018-05-24T07:22:44.555Z,4.03
2018-05-24T07:25:12.805Z,4.20
2018-05-24T07:27:40.307Z,4.37
2018-05-24T07:30:09.335Z,4.80
2018-05-24T07:32:36.860Z,5.00
2018-05-24T07:35:04.367Z,5.10
2018-05-24T07:37:31.852Z,5.70
2018-05-24T07:39:59.323Z,5.10
2018-05-24T07:42:26.811Z,4.90
2018-05-24T07:44:55.184Z,5.40
2018-05-24T07:47:23.475Z,5.13
2018-05-24T07:49:50.961Z,6.00
2018-05-24T07:52:19.097Z,5.30
2018-05-24T07:54:47.346Z,4.80
2018-05-24T07:57:15.814Z,5.30
2018-05-24T07:59:43.261Z,4.90
2018-05-24T08:02:10.721Z,5.10
2018-05-24T08:04:38.189Z,4.57
2018-05-24T08:07:05.682Z,5.17
2018-05-24T08:09:33.912Z,5.20
2018-05-24T08:12:01.909Z,5.60
2018-05-24T08:14:30.141Z,5.43
2018-05-24T08:16:57.628Z,6.10
2018-05-24T08:19:25.184Z,5.70
2018-05-24T08:21:52.647Z,5.67
2018-05-24T08:24:20.878Z,6.03
2018-05-24T08:26:48.349Z,5.30
2018-05-24T08:29:16.017Z,5.43
2018-05-24T08:31:43.474Z,5.67
2018-05-24T08:34:10.939Z,4.90
2018-05-24T08:36:38.379Z,5.37
2018-05-24T08:39:05.944Z,6.03
2018-05-24T08:41:33.414Z,6.47
2018-05-24T08:44:00.873Z,5.80
2018-05-24T08:46:28.336Z,6.40
2018-05-24T08:48:55.888Z,5.97
2018-05-24T08:51:23.893Z,6.73
2018-05-24T08:53:52.115Z,6.43
2018-05-24T08:56:19.700Z,6.40
2018-05-24T08:58:48.669Z,6.50
2018-05-24T09:01:16.226Z,6.17
2018-05-24T09:03:43.599Z,6.03
2018-05-24T09:06:11.048Z,6.00
2018-05-24T09:08:38.504Z,6.73
2018-05-24T09:11:06.065Z,6.07
2018-05-24T09:13:33.522Z,7.13
2018-05-24T09:16:00.981Z,7.27
2018-05-24T09:18:28.451Z,5.60
2018-05-24T09:20:56.708Z,6.03
2018-05-24T09:23:24.175Z,6.60
2018-05-24T09:25:51.732Z,7.70
2018-05-24T09:28:19.190Z,6.53
2018-05-24T09:30:47.420Z,7.10
2018-05-24T09:33:14.864Z,7.10
2018-05-24T09:35:42.315Z,7.30
2018-05-24T09:38:09.795Z,6.77
2018-05-24T09:40:37.253Z,7.40
2018-05-24T09:43:04.736Z,7.23
2018-05-24T09:45:33.321Z,6.37
2018-05-24T09:48:00.769Z,6.70
2018-05-24T09:50:28.365Z,6.93
2018-05-24T09:52:56.624Z,8.00
2018-05-24T09:55:24.184Z,6.83
2018-05-24T09:57:52.354Z,6.80
2018-05-24T10:00:22.749Z,7.00
2018-05-24T10:02:50.209Z,6.80
2018-05-24T10:05:17.676Z,6.20
2018-05-24T10:07:45.250Z,6.67
2018-05-24T10:10:12.713Z,7.07
2018-05-24T10:12:40.185Z,6.60
2018-05-24T10:15:08.405Z,6.80
2018-05-24T10:17:35.899Z,6.00
2018-05-24T10:20:03.360Z,6.60
2018-05-24T10:22:31.591Z,7.50
2018-05-24T10:24:59.079Z,6.90
2018-05-24T10:27:27.480Z,6.97
2018-05-24T10:29:55.760Z,7.43
2018-05-24T10:32:24.824Z,7.70
2018-05-24T10:34:52.392Z,8.13
2018-05-24T10:37:20.788Z,8.90
2018-05-24T10:39:49.043Z,7.60
2018-05-24T10:42:16.984Z,8.10
2018-05-24T10:44:44.941Z,7.60
2018-05-24T10:47:13.279Z,7.30
2018-05-24T10:49:40.723Z,8.47
2018-05-24T10:52:08.285Z,8.00
2018-05-24T10:54:35.837Z,7.93
2018-05-24T10:57:03.300Z,6.83
2018-05-24T10:59:30.806Z,7.27
2018-05-24T11:01:58.236Z,8.23
2018-05-24T11:04:26.464Z,7.30
2018-05-24T11:06:53.922Z,7.40
2018-05-24T11:09:22.215Z,7.67
2018-05-24T11:11:49.732Z,8.00
2018-05-24T11:14:17.198Z,9.10
2018-05-24T11:16:44.697Z,8.50
2018-05-24T11:19:12.305Z,9.30
2018-05-24T11:21:39.777Z,9.83
2018-05-24T11:24:07.242Z,9.60
2018-05-24T11:26:34.717Z,9.73
2018-05-24T11:29:02.196Z,10.37
2018-05-24T11:31:30.451Z,11.10
2018-05-24T11:33:57.921Z,11.10
2018-05-24T11:36:25.383Z,10.40
2018-05-24T11:38:52.846Z,10.80
2018-05-24T11:41:21.081Z,10.10
2018-05-24T11:43:48.652Z,10.27
2018-05-24T11:46:16.898Z,10.93
2018-05-24T11:48:44.348Z,10.47
2018-05-24T11:51:11.851Z,9.93
2018-05-24T11:53:39.405Z,11.93
2018-05-24T11:56:07.673Z,12.27
2018-05-24T11:58:35.145Z,11.53
2018-05-24T12:01:03.377Z,12.10
2018-05-24T12:03:30.840Z,11.80
2018-05-24T12:05:58.312Z,12.37
2018-05-24T12:08:25.769Z,12.63
2018-05-24T12:10:53.248Z,12.47
2018-05-24T12:13:20.709Z,12.80
2018-05-24T12:15:48.928Z,11.73
2018-05-24T12:18:16.396Z,13.57
2018-05-24T12:20:43.860Z,13.60
2018-05-24T12:23:11.326Z,13.13
2018-05-24T12:25:39.520Z,12.40
2018-05-24T12:28:06.976Z,13.40
2018-05-24T12:30:34.432Z,12.17
2018-05-24T12:33:01.969Z,13.97
2018-05-24T12:35:30.180Z,13.50
2018-05-24T12:37:57.604Z,13.70
2018-05-24T12:40:25.082Z,13.27
2018-05-24T12:42:52.552Z,13.80
2018-05-24T12:45:21.688Z,13.70
2018-05-24T12:47:49.187Z,15.10
2018-05-24T12:50:16.644Z,13.00
2018-05-24T12:52:44.113Z,13.40
2018-05-24T12:55:12.344Z,13.60
2018-05-24T12:57:40.667Z,14.80
2018-05-24T13:00:08.900Z,14.00
2018-05-24T13:02:36.380Z,14.33
2018-05-24T13:05:03.853Z,14.37
2018-05-24T13:07:32.085Z,13.20
2018-05-24T13:09:59.535Z,13.53
2018-05-24T13:12:27.008Z,14.80
2018-05-24T13:14:54.473Z,14.63
2018-05-24T13:17:22.601Z,14.07
2018-05-24T13:19:50.108Z,14.87
2018-05-24T13:22:18.385Z,15.93
2018-05-24T13:24:47.376Z,14.87
2018-05-24T13:27:14.836Z,16.37
2018-05-24T13:29:43.064Z,15.67
2018-05-24T13:32:10.540Z,17.20
2018-05-24T13:34:38.017Z,16.17
2018-05-24T13:37:05.488Z,16.27
2018-05-24T13:39:33.032Z,16.77
2018-05-24T13:42:02.000Z,17.57
2018-05-24T13:44:29.464Z,15.13
2018-05-24T13:46:56.968Z,17.77
2018-05-24T13:49:24.513Z,16.20
2018-05-24T13:51:52.741Z,17.90
2018-05-24T13:54:21.490Z,17.20
2018-05-24T13:56:49.744Z,16.80
2018-05-24T13:59:17.207Z,16.80
2018-05-24T14:01:44.805Z,16.93
2018-05-24T14:04:13.857Z,284.97
2018-05-24T14:06:42.105Z,160.53
2018-05-24T14:09:09.576Z,25.17
2018-05-24T14:11:37.173Z,17.17
2018-05-24T14:14:05.412Z,17.20
2018-05-24T14:16:32.875Z,16.07
2018-05-24T14:19:01.123Z,16.03
2018-05-24T14:21:28.604Z,18.67
2018-05-24T14:23:56.864Z,16.50
2018-05-24T14:26:24.324Z,18.47
2018-05-24T14:28:51.804Z,17.47
2018-05-24T14:31:20.804Z,15.50
2018-05-24T14:33:48.268Z,18.30
2018-05-24T14:36:16.508Z,17.10
2018-05-24T14:38:43.985Z,19.67
2018-05-24T14:41:12.976Z,17.43
2018-05-24T14:43:40.436Z,18.33
2018-05-24T14:46:09.420Z,19.13
2018-05-24T14:48:36.891Z,20.43
2018-05-24T14:51:04.433Z,18.97
2018-05-24T14:53:31.892Z,19.40
2018-05-24T14:55:59.456Z,20.33
2018-05-24T14:58:27.672Z,18.90
2018-05-24T15:00:55.139Z,18.90
2018-05-24T15:03:22.648Z,21.10
2018-05-24T15:05:50.124Z,19.13
2018-05-24T15:08:18.349Z,19.90
2018-05-24T15:10:45.812Z,20.17
2018-05-24T15:13:25.253Z,18.20
2018-05-24T15:15:52.711Z,18.60
2018-05-24T15:18:20.172Z,20.23
2018-05-24T15:20:47.644Z,20.80
2018-05-24T15:23:15.109Z,21.27
2018-05-24T15:25:43.344Z,19.20
2018-05-24T15:28:10.816Z,19.33
2018-05-24T15:30:38.277Z,20.50
2018-05-24T15:33:05.759Z,19.50
2018-05-24T15:35:34.005Z,20.90
2018-05-24T15:38:01.476Z,18.87
2018-05-24T15:40:29.721Z,20.23
2018-05-24T15:42:57.207Z,19.20
2018-05-24T15:45:25.456Z,22.40
2018-05-24T15:47:52.957Z,20.57
2018-05-24T15:50:21.180Z,21.70
2018-05-24T15:52:48.677Z,20.93
2018-05-24T15:55:16.158Z,20.70
2018-05-24T15:57:44.388Z,20.77
2018-05-24T16:00:11.856Z,19.00
2018-05-24T16:02:40.848Z,19.27
2018-05-24T16:05:08.310Z,20.47
2018-05-24T16:07:36.584Z,20.53
2018-05-24T16:10:04.047Z,19.60
2018-05-24T16:12:31.512Z,22.07
2018-05-24T16:14:58.983Z,19.97
2018-05-24T16:17:27.208Z,20.13
2018-05-24T16:19:54.685Z,21.20
2018-05-24T16:22:23.684Z,19.53
2018-05-24T16:24:52.652Z,22.97
2018-05-24T16:27:20.145Z,19.47
2018-05-24T16:29:47.600Z,19.83
2018-05-24T16:32:15.832Z,17.93
2018-05-24T16:34:43.311Z,15.80
2018-05-24T16:37:10.771Z,15.37
2018-05-24T16:39:39.768Z,15.20
2018-05-24T16:42:07.240Z,18.30
2018-05-24T16:44:35.468Z,16.93
2018-05-24T16:47:02.958Z,17.00
2018-05-24T16:49:31.179Z,15.90
2018-05-24T16:51:58.640Z,16.73
2018-05-24T16:54:26.202Z,16.80
2018-05-24T16:56:53.580Z,15.90
2018-05-24T16:59:21.064Z,15.73
2018-05-24T17:01:49.349Z,13.17
2018-05-24T17:04:17.725Z,11.90
2018-05-24T17:06:45.181Z,11.80
2018-05-24T17:09:13.490Z,12.90
2018-05-24T17:11:41.708Z,12.50
2018-05-24T17:14:09.163Z,11.90
2018-05-24T17:16:36.738Z,12.90
2018-05-24T17:19:05.714Z,13.20
2018-05-24T17:21:33.198Z,12.40
2018-05-24T17:24:02.185Z,12.20
2018-05-24T17:26:30.452Z,13.40
2018-05-24T17:28:58.705Z,11.60
2018-05-24T17:31:26.184Z,13.23
2018-05-24T17:33:53.801Z,13.50
2018-05-24T17:36:21.873Z,12.63
2018-05-24T17:38:49.344Z,12.50
2018-05-24T17:41:16.812Z,11.73
2018-05-24T17:43:44.281Z,12.03
2018-05-24T17:46:11.753Z,12.27
2018-05-24T17:48:39.828Z,13.43
2018-05-24T17:51:08.062Z,12.53
2018-05-24T17:53:35.532Z,14.07
2018-05-24T17:56:02.996Z,13.43
2018-05-24T17:58:30.449Z,14.10
2018-05-24T18:00:57.917Z,13.13
2018-05-24T18:03:25.380Z,12.53
2018-05-24T18:05:52.874Z,12.67
2018-05-24T18:08:20.329Z,12.73
2018-05-24T18:10:47.785Z,13.10
2018-05-24T18:13:15.312Z,13.33
2018-05-24T18:15:42.800Z,13.90
2018-05-24T18:18:10.273Z,12.90
2018-05-24T18:20:37.755Z,14.83
2018-05-24T18:23:05.241Z,13.40
2018-05-24T18:25:34.427Z,14.90
2018-05-24T18:28:01.895Z,15.20
2018-05-24T18:30:29.441Z,15.07
2018-05-24T18:32:57.014Z,15.97
2018-05-24T18:35:25.987Z,14.07
2018-05-24T18:37:53.440Z,17.13
2018-05-24T18:40:20.912Z,16.57
2018-05-24T18:42:48.403Z,15.50
2018-05-24T18:45:16.638Z,14.60
2018-05-24T18:47:44.106Z,15.03
2018-05-24T18:50:11.580Z,15.40
2018-05-24T18:52:39.812Z,13.80
2018-05-24T18:55:07.305Z,15.60
2018-05-24T18:57:35.538Z,16.63
2018-05-24T19:00:03.007Z,15.63
2018-05-24T19:02:30.493Z,14.90
2018-05-24T19:04:58.733Z,15.63
2018-05-24T19:07:26.189Z,15.90
2018-05-24T19:09:53.770Z,17.37
2018-05-24T19:12:21.228Z,15.33
2018-05-24T19:14:48.704Z,16.27
2018-05-24T19:17:17.016Z,16.00
2018-05-24T19:19:44.508Z,17.17
2018-05-24T19:22:12.107Z,17.93
2018-05-24T19:24:39.567Z,19.17
2018-05-24T19:27:07.028Z,17.40
2018-05-24T19:29:34.556Z,16.30
2018-05-24T19:32:01.972Z,16.63
2018-05-24T19:34:29.434Z,18.43
2018-05-24T19:36:56.895Z,19.97
2018-05-24T19:39:24.361Z,17.47
2018-05-24T19:41:51.813Z,18.10
2018-05-24T19:44:19.288Z,17.43
2018-05-24T19:46:46.748Z,20.67
2018-05-24T19:49:14.228Z,19.47
2018-05-24T19:51:42.455Z,18.07
2018-05-24T19:54:09.924Z,18.60
2018-05-24T19:56:37.404Z,17.73
2018-05-24T19:59:05.638Z,18.77
2018-05-24T20:01:33.103Z,19.77
2018-05-24T20:04:01.343Z,18.33
2018-05-24T20:06:28.807Z,18.90
2018-05-24T20:08:56.281Z,19.43
2018-05-24T20:11:23.752Z,19.70
2018-05-24T20:13:51.244Z,19.00
2018-05-24T20:16:19.472Z,20.70
2018-05-24T20:18:46.952Z,22.53
2018-05-24T20:21:14.450Z,20.10
2018-05-24T20:23:41.900Z,21.17
2018-05-24T20:26:10.131Z,20.47
2018-05-24T20:28:37.621Z,20.77
2018-05-24T20:31:05.847Z,22.20
2018-05-24T20:33:33.312Z,19.50
2018-05-24T20:36:00.804Z,20.53
2018-05-24T20:38:29.029Z,20.77
2018-05-24T20:40:56.524Z,20.87
2018-05-24T20:43:23.989Z,21.27
2018-05-24T20:45:52.208Z,22.47
2018-05-24T20:48:19.684Z,20.90
2018-05-24T20:50:47.160Z,21.97
2018-05-24T20:53:14.650Z,21.90
2018-05-24T20:55:42.876Z,22.50
2018-05-24T20:58:10.357Z,21.67
2018-05-24T21:00:37.808Z,23.97
2018-05-24T21:03:05.285Z,23.50
2018-05-24T21:05:33.499Z,23.47
2018-05-24T21:08:01.001Z,23.87
2018-05-24T21:10:28.492Z,22.60
2018-05-24T21:12:55.948Z,23.73
2018-05-24T21:15:23.408Z,22.80
2018-05-24T21:17:50.891Z,23.23
2018-05-24T21:20:18.388Z,24.47
2018-05-24T21:22:45.812Z,24.70
2018-05-24T21:25:13.276Z,23.50
2018-05-24T21:27:40.757Z,23.00
2018-05-24T21:30:08.212Z,23.83
2018-05-24T21:32:35.687Z,22.90
2018-05-24T21:35:03.940Z,23.10
2018-05-24T21:37:31.397Z,25.33
2018-05-24T21:39:58.869Z,26.40
2018-05-24T21:42:27.105Z,25.43
2018-05-24T21:44:54.582Z,24.97
2018-05-24T21:47:22.152Z,26.97
2018-05-24T21:49:49.621Z,27.00
2018-05-24T21:52:17.875Z,25.37
2018-05-24T21:54:45.349Z,27.20
2018-05-24T21:57:12.811Z,26.80
2018-05-24T21:59:41.051Z,25.50
2018-05-24T22:02:08.544Z,27.20
2018-05-24T22:04:36.096Z,24.73
2018-05-24T22:07:04.377Z,26.53
2018-05-24T22:09:32.616Z,25.07
2018-05-24T22:12:00.099Z,25.73
2018-05-24T22:14:27.570Z,25.67
2018-05-24T22:16:55.824Z,26.43
2018-05-24T22:19:23.256Z,26.67
2018-05-24T22:21:50.716Z,27.50
2018-05-24T22:24:18.180Z,25.50
2018-05-24T22:26:45.648Z,26.93
2018-05-24T22:29:13.107Z,28.73
2018-05-24T22:31:40.578Z,27.93
2018-05-24T22:34:08.816Z,26.10
2018-05-24T22:36:36.280Z,29.87
2018-05-24T22:39:03.749Z,28.43
2018-05-24T22:41:31.218Z,28.40
2018-05-24T22:43:58.671Z,27.97
2018-05-24T22:46:26.144Z,28.70
2018-05-24T22:48:54.372Z,28.97
2018-05-24T22:51:21.865Z,28.33
2018-05-24T22:53:49.333Z,27.10
2018-05-24T22:56:17.582Z,27.63
2018-05-24T22:58:45.055Z,27.83
2018-05-24T23:01:12.508Z,27.50
2018-05-24T23:03:39.979Z,27.77
2018-05-24T23:06:08.204Z,30.20
2018-05-24T23:08:35.668Z,28.23
2018-05-24T23:11:03.148Z,28.50
2018-05-24T23:13:30.601Z,28.00
2018-05-24T23:15:58.068Z,29.77
2018-05-24T23:18:25.521Z,30.07
2018-05-24T23:20:52.988Z,29.23
2018-05-24T23:23:21.233Z,28.60
2018-05-24T23:25:48.688Z,32.60
2018-05-24T23:28:16.152Z,29.20
2018-05-24T23:30:43.626Z,30.53
2018-05-24T23:33:11.167Z,30.03
2018-05-24T23:35:38.661Z,31.43
2018-05-24T23:38:06.884Z,30.20
2018-05-24T23:40:34.350Z,32.07
2018-05-24T23:43:01.821Z,31.03
2018-05-24T23:45:29.281Z,30.67
2018-05-24T23:47:56.845Z,30.10
2018-05-24T23:50:24.305Z,30.90
2018-05-24T23:52:51.812Z,31.70
2018-05-24T23:55:19.309Z,30.43
2018-05-24T23:57:47.589Z,31.13
